sensor_id;sensor_type;location;lat;lon;timestamp;temperature;humidity
4183;DHT22;2105;52.300;9.182;2023-03-01T00:02:12;-1.40;1.00
4183;DHT22;2105;52.300;9.182;2023-03-01T00:04:46;-1.40;1.00
4183;DHT22;2105;52.300;9.182;2023-03-01T00:07:29;-1.50;4.50
4183;DHT22;2105;52.300;9.182;2023-03-01T00:09:58;-1.60;99.90
4183;DHT22;2105;52.300;9.182;2023-03-01T00:12:24;-1.60;99.90
4183;DHT22;2105;52.300;9.182;2023-03-01T00:14:57;-1.60;1.00
4183;DHT22;2105;52.300;9.182;2023-03-01T00:17:38;-1.50;1.00
4183;DHT22;2105;52.300;9.182;2023-03-01T00:20:09;-1.50;1.00
4183;DHT22;2105;52.300;9.182;2023-03-01T00:22:36;-1.50;1.00
4183;DHT22;2105;52.300;9.182;2023-03-01T00:25:15;-1.70;1.00
4183;DHT22;2105;52.300;9.182;2023-03-01T00:27:42;-1.80;65.70
4183;DHT22;2105;52.300;9.182;2023-03-01T00:30:11;-1.80;70.10
4183;DHT22;2105;52.300;9.182;2023-03-01T00:32:53;-1.80;99.90
4183;DHT22;2105;52.300;9.182;2023-03-01T00:35:26;-1.70;1.00
4183;DHT22;2105;52.300;9.182;2023-03-01T00:37:53;-1.70;1.00
4183;DHT22;2105;52.300;9.182;2023-03-01T00:40:43;-1.60;99.90
4183;DHT22;2105;52.300;9.182;2023-03-01T00:43:12;-1.40;99.90
4183;DHT22;2105;52.300;9.182;2023-03-01T00:46:02;-1.30;1.00
4183;DHT22;2105;52.300;9.182;2023-03-01T00:48:42;-1.30;99.90
4183;DHT22;2105;52.300;9.182;2023-03-01T00:51:17;-1.20;1.00
4183;DHT22;2105;52.300;9.182;2023-03-01T00:54:07;-1.30;99.90
4183;DHT22;2105;52.300;9.182;2023-03-01T00:56:35;-1.40;1.00
4183;DHT22;2105;52.300;9.182;2023-03-01T00:59:16;-1.50;1.00
4183;DHT22;2105;52.300;9.182;2023-03-01T01:05:14;-1.60;99.90
4183;DHT22;2105;52.300;9.182;2023-03-01T01:08:12;-1.70;99.90
4183;DHT22;2105;52.300;9.182;2023-03-01T01:10:45;-1.70;1.00
4183;DHT22;2105;52.300;9.182;2023-03-01T01:13:16;-1.70;1.00
4183;DHT22;2105;52.300;9.182;2023-03-01T01:15:50;-1.70;1.00
4183;DHT22;2105;52.300;9.182;2023-03-01T01:18:24;-1.70;1.00
4183;DHT22;2105;52.300;9.182;2023-03-01T01:20:56;-1.70;1.00
4183;DHT22;2105;52.300;9.182;2023-03-01T01:23:29;-1.90;1.00
4183;DHT22;2105;52.300;9.182;2023-03-01T01:26:18;-2.10;1.00
4183;DHT22;2105;52.300;9.182;2023-03-01T01:28:52;-2.10;99.90
4183;DHT22;2105;52.300;9.182;2023-03-01T01:31:49;-2.00;1.00
4183;DHT22;2105;52.300;9.182;2023-03-01T01:34:21;-2.10;1.00
4183;DHT22;2105;52.300;9.182;2023-03-01T01:36:54;-2.10;1.00
4183;DHT22;2105;52.300;9.182;2023-03-01T01:39:29;-2.10;1.00
4183;DHT22;2105;52.300;9.182;2023-03-01T01:42:23;-2.00;1.00
4183;DHT22;2105;52.300;9.182;2023-03-01T01:45:26;-2.00;99.90
4183;DHT22;2105;52.300;9.182;2023-03-01T01:48:02;-1.90;48.90
4183;DHT22;2105;52.300;9.182;2023-03-01T01:50:35;-2.00;1.00
4183;DHT22;2105;52.300;9.182;2023-03-01T01:53:29;-2.10;1.00
4183;DHT22;2105;52.300;9.182;2023-03-01T01:56:00;-2.10;99.90
4183;DHT22;2105;52.300;9.182;2023-03-01T01:58:30;-2.20;1.00
4183;DHT22;2105;52.300;9.182;2023-03-01T02:01:00;-2.20;94.10
4183;DHT22;2105;52.300;9.182;2023-03-01T02:03:30;-2.20;99.90
4183;DHT22;2105;52.300;9.182;2023-03-01T02:06:04;-2.20;99.90
4183;DHT22;2105;52.300;9.182;2023-03-01T02:08:37;-2.20;1.00
4183;DHT22;2105;52.300;9.182;2023-03-01T02:11:35;-2.30;1.00
4183;DHT22;2105;52.300;9.182;2023-03-01T02:13:54;-2.30;99.90
4183;DHT22;2105;52.300;9.182;2023-03-01T02:16:22;-2.30;1.00
4183;DHT22;2105;52.300;9.182;2023-03-01T02:18:50;-2.10;1.00
4183;DHT22;2105;52.300;9.182;2023-03-01T02:21:40;-2.10;1.00
4183;DHT22;2105;52.300;9.182;2023-03-01T02:24:20;-2.10;1.00
4183;DHT22;2105;52.300;9.182;2023-03-01T02:26:54;-2.10;1.00
4183;DHT22;2105;52.300;9.182;2023-03-01T02:29:24;-2.00;99.90
4183;DHT22;2105;52.300;9.182;2023-03-01T02:32:00;-2.10;1.00
4183;DHT22;2105;52.300;9.182;2023-03-01T02:34:29;-2.20;24.40
4183;DHT22;2105;52.300;9.182;2023-03-01T02:37:03;-2.10;99.90
4183;DHT22;2105;52.300;9.182;2023-03-01T02:39:33;-2.30;1.00
4183;DHT22;2105;52.300;9.182;2023-03-01T02:42:13;-2.40;1.00
4183;DHT22;2105;52.300;9.182;2023-03-01T02:44:42;-2.40;99.90
4183;DHT22;2105;52.300;9.182;2023-03-01T02:47:12;-2.30;1.00
4183;DHT22;2105;52.300;9.182;2023-03-01T02:49:39;-2.30;34.60
4183;DHT22;2105;52.300;9.182;2023-03-01T02:52:22;-2.40;1.00
4183;DHT22;2105;52.300;9.182;2023-03-01T02:54:54;-2.40;1.00
4183;DHT22;2105;52.300;9.182;2023-03-01T02:57:23;-2.30;1.00
4183;DHT22;2105;52.300;9.182;2023-03-01T03:00:03;-2.30;1.00
4183;DHT22;2105;52.300;9.182;2023-03-01T03:02:32;-2.30;1.00
4183;DHT22;2105;52.300;9.182;2023-03-01T03:05:05;-2.40;1.00
4183;DHT22;2105;52.300;9.182;2023-03-01T03:07:34;-2.40;1.00
4183;DHT22;2105;52.300;9.182;2023-03-01T03:10:03;-2.40;1.00
4183;DHT22;2105;52.300;9.182;2023-03-01T03:12:31;-2.50;99.90
4183;DHT22;2105;52.300;9.182;2023-03-01T03:15:09;-2.60;1.00
4183;DHT22;2105;52.300;9.182;2023-03-01T03:17:40;-2.50;1.00
4183;DHT22;2105;52.300;9.182;2023-03-01T03:20:09;-2.50;1.00
4183;DHT22;2105;52.300;9.182;2023-03-01T03:22:37;-2.60;1.00
4183;DHT22;2105;52.300;9.182;2023-03-01T03:25:05;-2.80;1.00
4183;DHT22;2105;52.300;9.182;2023-03-01T03:27:35;-2.80;1.00
4183;DHT22;2105;52.300;9.182;2023-03-01T03:30:06;-2.90;1.00
4183;DHT22;2105;52.300;9.182;2023-03-01T03:32:34;-2.90;82.60
4183;DHT22;2105;52.300;9.182;2023-03-01T03:35:01;-2.90;1.00
4183;DHT22;2105;52.300;9.182;2023-03-01T03:37:34;-2.80;9.40
4183;DHT22;2105;52.300;9.182;2023-03-01T03:40:18;-2.70;99.90
4183;DHT22;2105;52.300;9.182;2023-03-01T03:42:47;-2.60;99.90
4183;DHT22;2105;52.300;9.182;2023-03-01T03:45:16;-2.60;99.90
4183;DHT22;2105;52.300;9.182;2023-03-01T03:47:43;-2.60;1.00
4183;DHT22;2105;52.300;9.182;2023-03-01T03:50:11;-2.60;1.00
4183;DHT22;2105;52.300;9.182;2023-03-01T03:52:38;-2.60;1.00
4183;DHT22;2105;52.300;9.182;2023-03-01T03:55:06;-2.50;1.00
4183;DHT22;2105;52.300;9.182;2023-03-01T03:57:36;-2.50;99.90
4183;DHT22;2105;52.300;9.182;2023-03-01T04:00:04;-2.50;1.00
4183;DHT22;2105;52.300;9.182;2023-03-01T04:02:39;-2.50;1.00
4183;DHT22;2105;52.300;9.182;2023-03-01T04:05:07;-2.50;1.00
4183;DHT22;2105;52.300;9.182;2023-03-01T04:07:34;-2.50;1.00
4183;DHT22;2105;52.300;9.182;2023-03-01T04:10:02;-2.50;1.00
4183;DHT22;2105;52.300;9.182;2023-03-01T04:12:29;-2.50;1.00
4183;DHT22;2105;52.300;9.182;2023-03-01T04:14:55;-2.50;1.00
4183;DHT22;2105;52.300;9.182;2023-03-01T04:17:23;-2.50;1.00
4183;DHT22;2105;52.300;9.182;2023-03-01T04:19:51;-2.70;1.00
4183;DHT22;2105;52.300;9.182;2023-03-01T04:22:18;-2.80;99.90
4183;DHT22;2105;52.300;9.182;2023-03-01T04:24:47;-2.90;99.90
4183;DHT22;2105;52.300;9.182;2023-03-01T04:27:14;-2.90;99.90
4183;DHT22;2105;52.300;9.182;2023-03-01T04:29:42;-2.90;1.00
4183;DHT22;2105;52.300;9.182;2023-03-01T04:32:09;-2.90;99.90
4183;DHT22;2105;52.300;9.182;2023-03-01T04:34:37;-2.80;1.00
4183;DHT22;2105;52.300;9.182;2023-03-01T04:37:05;-2.90;99.90
4183;DHT22;2105;52.300;9.182;2023-03-01T04:39:32;-2.80;1.00
4183;DHT22;2105;52.300;9.182;2023-03-01T04:41:59;-2.90;99.90
4183;DHT22;2105;52.300;9.182;2023-03-01T04:44:26;-3.00;99.90
4183;DHT22;2105;52.300;9.182;2023-03-01T04:46:53;-3.00;1.00
4183;DHT22;2105;52.300;9.182;2023-03-01T04:49:19;-3.20;1.00
4183;DHT22;2105;52.300;9.182;2023-03-01T04:51:46;-3.30;1.00
4183;DHT22;2105;52.300;9.182;2023-03-01T04:54:14;-3.30;99.90
4183;DHT22;2105;52.300;9.182;2023-03-01T04:56:41;-3.30;1.00
4183;DHT22;2105;52.300;9.182;2023-03-01T04:59:08;-3.30;1.00
4183;DHT22;2105;52.300;9.182;2023-03-01T05:01:38;-3.30;99.90
4183;DHT22;2105;52.300;9.182;2023-03-01T05:04:08;-3.20;99.90
4183;DHT22;2105;52.300;9.182;2023-03-01T05:06:38;-3.10;1.00
4183;DHT22;2105;52.300;9.182;2023-03-01T05:09:06;-3.20;99.90
4183;DHT22;2105;52.300;9.182;2023-03-01T05:11:34;-3.30;99.90
4183;DHT22;2105;52.300;9.182;2023-03-01T05:14:02;-3.30;99.90
4183;DHT22;2105;52.300;9.182;2023-03-01T05:16:28;-3.30;1.00
4183;DHT22;2105;52.300;9.182;2023-03-01T05:18:56;-3.30;1.00
4183;DHT22;2105;52.300;9.182;2023-03-01T05:21:23;-3.30;1.00
4183;DHT22;2105;52.300;9.182;2023-03-01T05:23:50;-3.30;99.90
4183;DHT22;2105;52.300;9.182;2023-03-01T05:26:19;-3.20;99.90
4183;DHT22;2105;52.300;9.182;2023-03-01T05:28:48;-3.20;1.00
4183;DHT22;2105;52.300;9.182;2023-03-01T05:31:15;-3.30;1.00
4183;DHT22;2105;52.300;9.182;2023-03-01T05:33:42;-3.40;1.00
4183;DHT22;2105;52.300;9.182;2023-03-01T05:36:09;-3.40;1.00
4183;DHT22;2105;52.300;9.182;2023-03-01T05:38:36;-3.40;1.00
4183;DHT22;2105;52.300;9.182;2023-03-01T05:41:03;-3.40;1.00
4183;DHT22;2105;52.300;9.182;2023-03-01T05:43:31;-3.40;1.00
4183;DHT22;2105;52.300;9.182;2023-03-01T05:46:00;-3.40;99.90
4183;DHT22;2105;52.300;9.182;2023-03-01T05:48:27;-3.40;99.90
4183;DHT22;2105;52.300;9.182;2023-03-01T05:50:54;-3.30;1.00
4183;DHT22;2105;52.300;9.182;2023-03-01T05:53:20;-3.30;1.00
4183;DHT22;2105;52.300;9.182;2023-03-01T05:55:48;-3.20;1.00
4183;DHT22;2105;52.300;9.182;2023-03-01T05:58:16;-3.20;99.90
4183;DHT22;2105;52.300;9.182;2023-03-01T06:00:44;-3.10;99.90
4183;DHT22;2105;52.300;9.182;2023-03-01T06:03:14;-3.10;99.90
4183;DHT22;2105;52.300;9.182;2023-03-01T06:05:42;-3.20;1.00
4183;DHT22;2105;52.300;9.182;2023-03-01T06:08:10;-3.20;1.00
4183;DHT22;2105;52.300;9.182;2023-03-01T06:10:37;-3.20;1.00
4183;DHT22;2105;52.300;9.182;2023-03-01T06:13:04;-3.20;7.50
4183;DHT22;2105;52.300;9.182;2023-03-01T06:15:31;-3.10;32.90
4183;DHT22;2105;52.300;9.182;2023-03-01T06:17:58;-3.00;1.00
4183;DHT22;2105;52.300;9.182;2023-03-01T06:20:29;-3.00;1.00
4183;DHT22;2105;52.300;9.182;2023-03-01T06:22:56;-3.10;1.00
4183;DHT22;2105;52.300;9.182;2023-03-01T06:25:24;-3.10;99.90
4183;DHT22;2105;52.300;9.182;2023-03-01T06:27:51;-3.00;99.90
4183;DHT22;2105;52.300;9.182;2023-03-01T06:30:20;-3.10;41.80
4183;DHT22;2105;52.300;9.182;2023-03-01T06:32:47;-3.00;95.40
4183;DHT22;2105;52.300;9.182;2023-03-01T06:35:15;-2.90;89.10
4183;DHT22;2105;52.300;9.182;2023-03-01T06:37:45;-2.70;1.00
4183;DHT22;2105;52.300;9.182;2023-03-01T06:40:12;-2.60;1.00
4183;DHT22;2105;52.300;9.182;2023-03-01T06:42:42;-2.40;1.00
4183;DHT22;2105;52.300;9.182;2023-03-01T06:45:10;-2.30;99.90
4183;DHT22;2105;52.300;9.182;2023-03-01T06:47:36;-2.10;99.90
4183;DHT22;2105;52.300;9.182;2023-03-01T06:50:04;-1.90;99.90
4183;DHT22;2105;52.300;9.182;2023-03-01T06:52:31;-1.70;99.90
4183;DHT22;2105;52.300;9.182;2023-03-01T06:54:59;-1.60;99.90
4183;DHT22;2105;52.300;9.182;2023-03-01T06:57:26;-1.70;1.00
4183;DHT22;2105;52.300;9.182;2023-03-01T06:59:53;-1.70;1.00
4183;DHT22;2105;52.300;9.182;2023-03-01T07:02:20;-1.20;99.90
4183;DHT22;2105;52.300;9.182;2023-03-01T07:04:47;-0.50;1.00
4183;DHT22;2105;52.300;9.182;2023-03-01T07:07:15;0.10;99.90
4183;DHT22;2105;52.300;9.182;2023-03-01T07:09:43;0.70;99.90
4183;DHT22;2105;52.300;9.182;2023-03-01T07:12:11;0.70;1.00
4183;DHT22;2105;52.300;9.182;2023-03-01T07:14:38;1.00;1.00
4183;DHT22;2105;52.300;9.182;2023-03-01T07:17:05;1.80;99.90
4183;DHT22;2105;52.300;9.182;2023-03-01T07:19:32;2.00;1.00
4183;DHT22;2105;52.300;9.182;2023-03-01T07:21:59;1.70;1.00
4183;DHT22;2105;52.300;9.182;2023-03-01T07:24:25;1.70;1.00
4183;DHT22;2105;52.300;9.182;2023-03-01T07:26:52;2.20;1.00
4183;DHT22;2105;52.300;9.182;2023-03-01T07:29:21;2.90;1.00
4183;DHT22;2105;52.300;9.182;2023-03-01T07:31:49;3.30;99.90
4183;DHT22;2105;52.300;9.182;2023-03-01T07:34:16;3.60;99.90
4183;DHT22;2105;52.300;9.182;2023-03-01T07:36:43;3.50;99.90
4183;DHT22;2105;52.300;9.182;2023-03-01T07:39:11;3.60;99.90
4183;DHT22;2105;52.300;9.182;2023-03-01T07:41:38;3.70;99.90
4183;DHT22;2105;52.300;9.182;2023-03-01T07:44:04;3.90;99.90
4183;DHT22;2105;52.300;9.182;2023-03-01T07:46:33;4.40;99.90
4183;DHT22;2105;52.300;9.182;2023-03-01T07:49:00;5.00;99.90
4183;DHT22;2105;52.300;9.182;2023-03-01T07:51:28;5.60;99.90
4183;DHT22;2105;52.300;9.182;2023-03-01T07:53:55;6.00;70.10
4183;DHT22;2105;52.300;9.182;2023-03-01T07:56:22;6.60;1.00
4183;DHT22;2105;52.300;9.182;2023-03-01T07:58:49;6.90;1.00
4183;DHT22;2105;52.300;9.182;2023-03-01T08:01:18;6.80;1.00
4183;DHT22;2105;52.300;9.182;2023-03-01T08:03:46;6.40;1.00
4183;DHT22;2105;52.300;9.182;2023-03-01T08:06:15;6.40;1.00
4183;DHT22;2105;52.300;9.182;2023-03-01T08:08:43;6.80;1.00
4183;DHT22;2105;52.300;9.182;2023-03-01T08:11:12;7.60;1.00
4183;DHT22;2105;52.300;9.182;2023-03-01T08:13:39;8.30;1.00
4183;DHT22;2105;52.300;9.182;2023-03-01T08:16:08;8.70;1.00
4183;DHT22;2105;52.300;9.182;2023-03-01T08:18:35;9.00;1.00
4183;DHT22;2105;52.300;9.182;2023-03-01T08:21:04;9.40;1.00
4183;DHT22;2105;52.300;9.182;2023-03-01T08:23:31;9.60;1.00
4183;DHT22;2105;52.300;9.182;2023-03-01T08:26:09;10.10;1.00
4183;DHT22;2105;52.300;9.182;2023-03-01T08:28:36;10.10;1.00
4183;DHT22;2105;52.300;9.182;2023-03-01T08:31:03;10.20;1.00
4183;DHT22;2105;52.300;9.182;2023-03-01T08:33:39;9.80;1.00
4183;DHT22;2105;52.300;9.182;2023-03-01T08:36:07;9.90;1.00
4183;DHT22;2105;52.300;9.182;2023-03-01T08:38:34;9.70;1.00
4183;DHT22;2105;52.300;9.182;2023-03-01T08:41:02;9.40;1.00
4183;DHT22;2105;52.300;9.182;2023-03-01T08:43:30;8.80;1.00
4183;DHT22;2105;52.300;9.182;2023-03-01T08:45:57;8.60;1.00
4183;DHT22;2105;52.300;9.182;2023-03-01T08:48:27;8.20;1.00
4183;DHT22;2105;52.300;9.182;2023-03-01T08:51:08;7.90;1.00
4183;DHT22;2105;52.300;9.182;2023-03-01T08:53:35;7.20;1.00
4183;DHT22;2105;52.300;9.182;2023-03-01T08:56:04;6.70;1.00
4183;DHT22;2105;52.300;9.182;2023-03-01T08:58:31;6.50;1.00
4183;DHT22;2105;52.300;9.182;2023-03-01T09:00:58;6.20;1.00
4183;DHT22;2105;52.300;9.182;2023-03-01T09:03:29;6.00;1.00
4183;DHT22;2105;52.300;9.182;2023-03-01T09:06:00;5.80;1.00
4183;DHT22;2105;52.300;9.182;2023-03-01T09:08:28;5.50;1.00
4183;DHT22;2105;52.300;9.182;2023-03-01T09:10:55;5.40;1.00
4183;DHT22;2105;52.300;9.182;2023-03-01T09:13:22;5.50;1.00
4183;DHT22;2105;52.300;9.182;2023-03-01T09:15:50;5.60;1.00
4183;DHT22;2105;52.300;9.182;2023-03-01T09:18:17;5.60;1.00
4183;DHT22;2105;52.300;9.182;2023-03-01T09:20:44;5.60;1.00
4183;DHT22;2105;52.300;9.182;2023-03-01T09:23:11;5.90;1.00
4183;DHT22;2105;52.300;9.182;2023-03-01T09:25:48;5.90;1.00
4183;DHT22;2105;52.300;9.182;2023-03-01T09:28:19;6.10;1.00
4183;DHT22;2105;52.300;9.182;2023-03-01T09:30:52;6.20;1.00
4183;DHT22;2105;52.300;9.182;2023-03-01T09:33:19;6.40;1.00
4183;DHT22;2105;52.300;9.182;2023-03-01T09:35:46;6.50;1.00
4183;DHT22;2105;52.300;9.182;2023-03-01T09:38:13;6.40;1.00
4183;DHT22;2105;52.300;9.182;2023-03-01T09:40:43;6.60;1.00
4183;DHT22;2105;52.300;9.182;2023-03-01T09:43:17;6.70;1.00
4183;DHT22;2105;52.300;9.182;2023-03-01T09:45:46;6.90;1.00
4183;DHT22;2105;52.300;9.182;2023-03-01T09:48:18;7.00;1.00
4183;DHT22;2105;52.300;9.182;2023-03-01T09:50:47;7.20;1.00
4183;DHT22;2105;52.300;9.182;2023-03-01T09:53:16;7.30;1.00
4183;DHT22;2105;52.300;9.182;2023-03-01T09:55:50;7.30;1.00
4183;DHT22;2105;52.300;9.182;2023-03-01T09:58:44;7.30;1.00
4183;DHT22;2105;52.300;9.182;2023-03-01T10:01:26;7.40;1.00
4183;DHT22;2105;52.300;9.182;2023-03-01T10:04:26;7.20;1.00
4183;DHT22;2105;52.300;9.182;2023-03-01T10:07:02;7.10;1.00
4183;DHT22;2105;52.300;9.182;2023-03-01T10:09:34;7.50;1.00
4183;DHT22;2105;52.300;9.182;2023-03-01T10:12:07;7.50;1.00
4183;DHT22;2105;52.300;9.182;2023-03-01T10:14:38;7.60;1.00
4183;DHT22;2105;52.300;9.182;2023-03-01T10:17:10;7.70;1.00
4183;DHT22;2105;52.300;9.182;2023-03-01T10:19:42;7.90;1.00
4183;DHT22;2105;52.300;9.182;2023-03-01T10:22:14;7.70;1.00
4183;DHT22;2105;52.300;9.182;2023-03-01T10:24:41;7.60;1.00
4183;DHT22;2105;52.300;9.182;2023-03-01T10:27:16;7.60;1.00
4183;DHT22;2105;52.300;9.182;2023-03-01T10:29:48;7.60;1.00
4183;DHT22;2105;52.300;9.182;2023-03-01T10:32:17;7.70;1.00
4183;DHT22;2105;52.300;9.182;2023-03-01T10:34:44;7.70;1.00
4183;DHT22;2105;52.300;9.182;2023-03-01T10:37:13;7.80;1.00
4183;DHT22;2105;52.300;9.182;2023-03-01T10:39:56;8.00;1.00
4183;DHT22;2105;52.300;9.182;2023-03-01T10:42:27;8.10;1.00
4183;DHT22;2105;52.300;9.182;2023-03-01T10:44:55;8.30;1.00
4183;DHT22;2105;52.300;9.182;2023-03-01T10:47:23;8.20;1.00
4183;DHT22;2105;52.300;9.182;2023-03-01T10:49:56;8.20;1.00
4183;DHT22;2105;52.300;9.182;2023-03-01T10:52:26;8.10;1.00
4183;DHT22;2105;52.300;9.182;2023-03-01T10:54:55;8.30;1.00
4183;DHT22;2105;52.300;9.182;2023-03-01T10:57:38;8.40;1.00
4183;DHT22;2105;52.300;9.182;2023-03-01T11:00:24;8.50;1.00
4183;DHT22;2105;52.300;9.182;2023-03-01T11:03:08;8.50;1.00
4183;DHT22;2105;52.300;9.182;2023-03-01T11:05:36;8.50;1.00
4183;DHT22;2105;52.300;9.182;2023-03-01T11:08:04;8.50;1.00
4183;DHT22;2105;52.300;9.182;2023-03-01T11:10:32;8.50;1.00
4183;DHT22;2105;52.300;9.182;2023-03-01T11:13:13;8.40;1.00
4183;DHT22;2105;52.300;9.182;2023-03-01T11:15:40;8.20;1.00
4183;DHT22;2105;52.300;9.182;2023-03-01T11:18:19;8.10;1.00
4183;DHT22;2105;52.300;9.182;2023-03-01T11:20:46;8.20;1.00
4183;DHT22;2105;52.300;9.182;2023-03-01T11:23:15;8.10;1.00
4183;DHT22;2105;52.300;9.182;2023-03-01T11:25:44;8.20;1.00
4183;DHT22;2105;52.300;9.182;2023-03-01T11:28:16;8.40;1.00
4183;DHT22;2105;52.300;9.182;2023-03-01T11:30:49;8.60;1.00
4183;DHT22;2105;52.300;9.182;2023-03-01T11:33:28;8.40;1.00
4183;DHT22;2105;52.300;9.182;2023-03-01T11:36:03;8.40;1.00
4183;DHT22;2105;52.300;9.182;2023-03-01T11:38:34;8.70;1.00
4183;DHT22;2105;52.300;9.182;2023-03-01T11:41:05;8.80;1.00
4183;DHT22;2105;52.300;9.182;2023-03-01T11:43:40;8.70;1.00
4183;DHT22;2105;52.300;9.182;2023-03-01T11:46:39;8.60;1.00
4183;DHT22;2105;52.300;9.182;2023-03-01T11:49:20;8.60;1.00
4183;DHT22;2105;52.300;9.182;2023-03-01T11:52:01;8.40;1.00
4183;DHT22;2105;52.300;9.182;2023-03-01T11:54:43;8.70;1.00
4183;DHT22;2105;52.300;9.182;2023-03-01T11:57:20;9.10;1.00
4183;DHT22;2105;52.300;9.182;2023-03-01T12:00:00;9.20;1.00
4183;DHT22;2105;52.300;9.182;2023-03-01T12:02:45;9.00;1.00
4183;DHT22;2105;52.300;9.182;2023-03-01T12:05:28;9.00;1.00
4183;DHT22;2105;52.300;9.182;2023-03-01T12:08:04;9.10;1.00
4183;DHT22;2105;52.300;9.182;2023-03-01T12:10:42;9.50;1.00
4183;DHT22;2105;52.300;9.182;2023-03-01T12:13:25;9.70;1.00
4183;DHT22;2105;52.300;9.182;2023-03-01T12:16:09;9.50;1.00
4183;DHT22;2105;52.300;9.182;2023-03-01T12:21:35;9.50;1.00
4183;DHT22;2105;52.300;9.182;2023-03-01T12:24:29;9.50;1.00
4183;DHT22;2105;52.300;9.182;2023-03-01T12:27:15;9.60;1.00
4183;DHT22;2105;52.300;9.182;2023-03-01T12:29:53;9.80;1.00
4183;DHT22;2105;52.300;9.182;2023-03-01T12:32:42;9.90;1.00
4183;DHT22;2105;52.300;9.182;2023-03-01T12:35:25;9.90;1.00
4183;DHT22;2105;52.300;9.182;2023-03-01T12:37:58;10.10;1.00
4183;DHT22;2105;52.300;9.182;2023-03-01T12:43:34;10.40;1.00
4183;DHT22;2105;52.300;9.182;2023-03-01T12:46:14;10.30;1.00
4183;DHT22;2105;52.300;9.182;2023-03-01T12:48:50;10.20;1.00
4183;DHT22;2105;52.300;9.182;2023-03-01T12:51:26;10.00;1.00
4183;DHT22;2105;52.300;9.182;2023-03-01T12:53:55;10.00;1.00
4183;DHT22;2105;52.300;9.182;2023-03-01T12:56:25;9.90;1.00
4183;DHT22;2105;52.300;9.182;2023-03-01T12:58:59;9.90;1.00
4183;DHT22;2105;52.300;9.182;2023-03-01T13:01:36;10.10;1.00
4183;DHT22;2105;52.300;9.182;2023-03-01T13:04:29;10.10;1.00
4183;DHT22;2105;52.300;9.182;2023-03-01T13:07:04;10.40;1.00
4183;DHT22;2105;52.300;9.182;2023-03-01T13:09:38;10.30;1.00
4183;DHT22;2105;52.300;9.182;2023-03-01T13:12:42;10.10;1.00
4183;DHT22;2105;52.300;9.182;2023-03-01T13:15:25;10.10;1.00
4183;DHT22;2105;52.300;9.182;2023-03-01T13:17:53;9.80;1.00
4183;DHT22;2105;52.300;9.182;2023-03-01T13:20:26;9.80;1.00
4183;DHT22;2105;52.300;9.182;2023-03-01T13:23:10;9.80;1.00
4183;DHT22;2105;52.300;9.182;2023-03-01T13:26:12;9.70;1.00
4183;DHT22;2105;52.300;9.182;2023-03-01T13:28:50;9.90;1.00
4183;DHT22;2105;52.300;9.182;2023-03-01T13:34:40;9.90;1.00
4183;DHT22;2105;52.300;9.182;2023-03-01T13:37:22;9.80;1.00
4183;DHT22;2105;52.300;9.182;2023-03-01T13:39:51;10.20;1.00
4183;DHT22;2105;52.300;9.182;2023-03-01T13:42:38;10.20;1.00
4183;DHT22;2105;52.300;9.182;2023-03-01T13:45:16;9.90;1.00
4183;DHT22;2105;52.300;9.182;2023-03-01T13:47:45;9.60;1.00
4183;DHT22;2105;52.300;9.182;2023-03-01T13:50:19;9.50;1.00
4183;DHT22;2105;52.300;9.182;2023-03-01T13:52:52;9.70;1.00
4183;DHT22;2105;52.300;9.182;2023-03-01T13:55:23;9.80;1.00
4183;DHT22;2105;52.300;9.182;2023-03-01T13:57:53;9.60;1.00
4183;DHT22;2105;52.300;9.182;2023-03-01T14:00:31;9.60;1.00
4183;DHT22;2105;52.300;9.182;2023-03-01T14:03:08;9.80;1.00
4183;DHT22;2105;52.300;9.182;2023-03-01T14:05:36;9.70;1.00
4183;DHT22;2105;52.300;9.182;2023-03-01T14:08:13;9.70;1.00
4183;DHT22;2105;52.300;9.182;2023-03-01T14:10:54;9.80;1.00
4183;DHT22;2105;52.300;9.182;2023-03-01T14:13:36;10.10;1.00
4183;DHT22;2105;52.300;9.182;2023-03-01T14:16:19;10.00;1.00
4183;DHT22;2105;52.300;9.182;2023-03-01T14:18:56;10.10;1.00
4183;DHT22;2105;52.300;9.182;2023-03-01T14:21:29;10.10;1.00
4183;DHT22;2105;52.300;9.182;2023-03-01T14:23:57;10.00;1.00
4183;DHT22;2105;52.300;9.182;2023-03-01T14:26:24;9.60;1.00
4183;DHT22;2105;52.300;9.182;2023-03-01T14:28:51;9.50;1.00
4183;DHT22;2105;52.300;9.182;2023-03-01T14:31:36;9.40;1.00
4183;DHT22;2105;52.300;9.182;2023-03-01T14:34:03;9.20;1.00
4183;DHT22;2105;52.300;9.182;2023-03-01T14:36:32;8.80;1.00
4183;DHT22;2105;52.300;9.182;2023-03-01T14:39:02;8.50;1.00
4183;DHT22;2105;52.300;9.182;2023-03-01T14:41:43;8.20;1.00
4183;DHT22;2105;52.300;9.182;2023-03-01T14:44:15;8.20;1.00
4183;DHT22;2105;52.300;9.182;2023-03-01T14:46:44;8.20;1.00
4183;DHT22;2105;52.300;9.182;2023-03-01T14:49:15;8.20;1.00
4183;DHT22;2105;52.300;9.182;2023-03-01T14:51:48;8.20;1.00
4183;DHT22;2105;52.300;9.182;2023-03-01T14:54:22;8.10;1.00
4183;DHT22;2105;52.300;9.182;2023-03-01T14:56:51;7.90;1.00
4183;DHT22;2105;52.300;9.182;2023-03-01T14:59:24;7.80;1.00
4183;DHT22;2105;52.300;9.182;2023-03-01T15:01:51;7.80;1.00
4183;DHT22;2105;52.300;9.182;2023-03-01T15:04:19;7.80;1.00
4183;DHT22;2105;52.300;9.182;2023-03-01T15:06:50;7.90;1.00
4183;DHT22;2105;52.300;9.182;2023-03-01T15:09:18;7.90;1.00
4183;DHT22;2105;52.300;9.182;2023-03-01T15:11:46;7.80;1.00
4183;DHT22;2105;52.300;9.182;2023-03-01T15:14:39;7.70;1.00
4183;DHT22;2105;52.300;9.182;2023-03-01T15:17:20;7.60;1.00
4183;DHT22;2105;52.300;9.182;2023-03-01T15:19:47;7.50;1.00
4183;DHT22;2105;52.300;9.182;2023-03-01T15:22:15;7.40;1.00
4183;DHT22;2105;52.300;9.182;2023-03-01T15:24:46;7.40;1.00
4183;DHT22;2105;52.300;9.182;2023-03-01T15:27:17;7.30;1.00
4183;DHT22;2105;52.300;9.182;2023-03-01T15:29:49;7.20;1.00
4183;DHT22;2105;52.300;9.182;2023-03-01T15:32:29;7.10;1.00
4183;DHT22;2105;52.300;9.182;2023-03-01T15:34:57;7.10;1.00
4183;DHT22;2105;52.300;9.182;2023-03-01T15:37:40;7.10;1.00
4183;DHT22;2105;52.300;9.182;2023-03-01T15:40:21;7.20;1.00
4183;DHT22;2105;52.300;9.182;2023-03-01T15:42:51;7.20;1.00
4183;DHT22;2105;52.300;9.182;2023-03-01T15:45:22;7.00;1.00
4183;DHT22;2105;52.300;9.182;2023-03-01T15:47:52;7.00;1.00
4183;DHT22;2105;52.300;9.182;2023-03-01T15:50:24;6.90;1.00
4183;DHT22;2105;52.300;9.182;2023-03-01T15:52:52;6.80;1.00
4183;DHT22;2105;52.300;9.182;2023-03-01T15:55:20;6.80;1.00
4183;DHT22;2105;52.300;9.182;2023-03-01T15:57:48;6.80;1.00
4183;DHT22;2105;52.300;9.182;2023-03-01T16:00:17;6.80;1.00
4183;DHT22;2105;52.300;9.182;2023-03-01T16:02:44;6.70;1.00
4183;DHT22;2105;52.300;9.182;2023-03-01T16:05:20;6.60;1.00
4183;DHT22;2105;52.300;9.182;2023-03-01T16:07:48;6.70;1.00
4183;DHT22;2105;52.300;9.182;2023-03-01T16:10:16;6.60;1.00
4183;DHT22;2105;52.300;9.182;2023-03-01T16:12:42;6.60;1.00
4183;DHT22;2105;52.300;9.182;2023-03-01T16:15:15;6.50;1.00
4183;DHT22;2105;52.300;9.182;2023-03-01T16:17:44;6.50;1.00
4183;DHT22;2105;52.300;9.182;2023-03-01T16:20:11;6.40;1.00
4183;DHT22;2105;52.300;9.182;2023-03-01T16:22:41;6.40;1.00
4183;DHT22;2105;52.300;9.182;2023-03-01T16:25:09;6.40;1.00
4183;DHT22;2105;52.300;9.182;2023-03-01T16:27:36;6.20;1.00
4183;DHT22;2105;52.300;9.182;2023-03-01T16:30:04;6.00;1.00
4183;DHT22;2105;52.300;9.182;2023-03-01T16:32:31;5.90;1.00
4183;DHT22;2105;52.300;9.182;2023-03-01T16:34:59;5.80;1.00
4183;DHT22;2105;52.300;9.182;2023-03-01T16:37:26;5.70;1.00
4183;DHT22;2105;52.300;9.182;2023-03-01T16:39:52;5.70;1.00
4183;DHT22;2105;52.300;9.182;2023-03-01T16:42:19;5.60;1.00
4183;DHT22;2105;52.300;9.182;2023-03-01T16:44:46;5.50;1.00
4183;DHT22;2105;52.300;9.182;2023-03-01T16:47:12;5.50;1.00
4183;DHT22;2105;52.300;9.182;2023-03-01T16:49:39;5.40;1.00
4183;DHT22;2105;52.300;9.182;2023-03-01T16:52:07;5.30;1.00
4183;DHT22;2105;52.300;9.182;2023-03-01T16:54:34;5.30;1.00
4183;DHT22;2105;52.300;9.182;2023-03-01T16:57:01;5.20;1.00
4183;DHT22;2105;52.300;9.182;2023-03-01T16:59:27;5.00;1.00
4183;DHT22;2105;52.300;9.182;2023-03-01T17:01:54;4.70;1.00
4183;DHT22;2105;52.300;9.182;2023-03-01T17:04:21;4.40;1.00
4183;DHT22;2105;52.300;9.182;2023-03-01T17:06:48;4.10;1.00
4183;DHT22;2105;52.300;9.182;2023-03-01T17:09:16;4.00;1.00